createdAt,value
2017-07-24T00:00:42.410Z,100304.38
2017-07-24T00:01:47.478Z,100310.33
2017-07-24T00:02:52.448Z,100307.78
2017-07-24T00:03:57.910Z,100303.10
2017-07-24T00:05:02.982Z,100302.23
2017-07-24T00:06:08.030Z,100302.40
2017-07-24T00:07:13.014Z,100302.33
2017-07-24T00:08:18.065Z,100300.23
2017-07-24T00:09:23.166Z,100291.39
2017-07-24T00:10:30.054Z,100293.66
2017-07-24T00:11:38.927Z,100289.05
2017-07-24T00:12:43.957Z,100288.67
2017-07-24T00:13:49.394Z,100292.02
2017-07-24T00:14:54.416Z,100291.20
2017-07-24T00:15:59.538Z,100283.95
2017-07-24T00:17:04.579Z,100289.98
2017-07-24T00:18:09.562Z,100285.11
2017-07-24T00:19:14.567Z,100286.70
2017-07-24T00:20:19.525Z,100281.36
2017-07-24T00:21:25.258Z,100282.22
2017-07-24T00:22:30.347Z,100281.42
2017-07-24T00:23:35.399Z,100280.03
2017-07-24T00:24:40.414Z,100274.63
2017-07-24T00:25:45.474Z,100278.39
2017-07-24T00:26:50.990Z,100280.31
2017-07-24T00:27:56.041Z,100274.74
2017-07-24T00:29:01.035Z,100276.58
2017-07-24T00:30:06.148Z,100273.34
2017-07-24T00:31:11.194Z,100271.59
2017-07-24T00:32:16.225Z,100270.61
2017-07-24T00:33:21.242Z,100267.87
2017-07-24T00:34:26.341Z,100271.88
2017-07-24T00:35:31.347Z,100266.61
2017-07-24T00:36:36.329Z,100266.98
2017-07-24T00:37:41.435Z,100266.63
2017-07-24T00:38:46.445Z,100269.70
2017-07-24T00:39:52.178Z,100264.27
2017-07-24T00:40:57.166Z,100263.03
2017-07-24T00:42:02.256Z,100255.80
2017-07-24T00:43:07.376Z,100258.16
2017-07-24T00:44:12.409Z,100252.55
2017-07-24T00:45:17.504Z,100252.78
2017-07-24T00:46:22.577Z,100246.08
2017-07-24T00:47:27.558Z,100250.42
2017-07-24T00:48:35.191Z,100247.34
2017-07-24T00:49:40.137Z,100244.06
2017-07-24T00:50:45.153Z,100249.02
2017-07-24T00:51:50.177Z,100247.16
2017-07-24T00:53:04.017Z,100248.70
2017-07-24T00:54:09.041Z,100246.11
2017-07-24T00:55:14.077Z,100246.21
2017-07-24T00:56:19.085Z,100254.50
2017-07-24T00:57:24.059Z,100246.70
2017-07-24T00:58:29.203Z,100248.41
2017-07-24T00:59:34.296Z,100254.86
2017-07-24T01:00:39.323Z,100248.83
2017-07-24T01:01:44.391Z,100249.84
2017-07-24T01:02:49.392Z,100250.51
2017-07-24T01:03:54.475Z,100251.67
2017-07-24T01:04:59.490Z,100247.37
2017-07-24T01:06:05.014Z,100253.59
2017-07-24T01:07:10.045Z,100251.21
2017-07-24T01:08:15.109Z,100250.00
2017-07-24T01:09:23.708Z,100244.97
2017-07-24T01:10:28.717Z,100253.02
2017-07-24T01:11:33.915Z,100252.38
2017-07-24T01:12:38.939Z,100253.23
2017-07-24T01:13:44.002Z,100250.86
2017-07-24T01:14:49.082Z,100249.48
2017-07-24T01:15:54.130Z,100249.59
2017-07-24T01:17:00.110Z,100243.48
2017-07-24T01:18:05.165Z,100242.73
2017-07-24T01:19:10.269Z,100244.16
2017-07-24T01:20:15.338Z,100245.27
2017-07-24T01:21:20.569Z,100243.20
2017-07-24T01:22:25.691Z,100239.53
2017-07-24T01:23:31.298Z,100238.50
2017-07-24T01:24:36.817Z,100236.39
2017-07-24T01:25:41.878Z,100229.06
2017-07-24T01:26:47.019Z,100228.78
2017-07-24T01:27:52.063Z,100227.53
2017-07-24T01:28:57.126Z,100225.04
2017-07-24T01:30:03.222Z,100224.58
2017-07-24T01:31:10.481Z,100229.49
2017-07-24T01:32:15.607Z,100220.09
2017-07-24T01:33:20.622Z,100222.20
2017-07-24T01:34:25.718Z,100224.75
2017-07-24T01:35:30.806Z,100214.36
2017-07-24T01:36:35.885Z,100218.73
2017-07-24T01:37:40.900Z,100213.09
2017-07-24T01:38:46.013Z,100219.00
2017-07-24T01:39:51.046Z,100221.98
2017-07-24T01:40:56.031Z,100220.40
2017-07-24T01:42:01.110Z,100216.56
2017-07-24T01:43:06.220Z,100217.63
2017-07-24T01:44:11.270Z,100217.16
2017-07-24T01:45:18.162Z,100212.65
2017-07-24T01:46:22.837Z,100215.30
2017-07-24T01:47:27.854Z,100217.09
2017-07-24T01:48:32.969Z,100213.92
2017-07-24T01:49:37.286Z,100212.90
2017-07-24T01:50:42.283Z,100216.39
2017-07-24T01:51:47.258Z,100208.38
2017-07-24T01:52:52.235Z,100205.68
2017-07-24T01:53:56.893Z,100204.72
2017-07-24T01:55:01.518Z,100203.70
2017-07-24T01:56:06.565Z,100201.06
2017-07-24T01:57:11.550Z,100200.08
2017-07-24T01:58:16.541Z,100194.06
2017-07-24T01:59:21.569Z,100190.82
2017-07-24T02:00:26.593Z,100189.11
2017-07-24T02:01:30.982Z,100187.11
2017-07-24T02:02:35.345Z,100178.79
2017-07-24T02:03:40.418Z,100190.43
2017-07-24T02:04:45.423Z,100186.42
2017-07-24T02:05:50.149Z,100182.92
2017-07-24T02:06:55.183Z,100174.88
2017-07-24T02:08:00.241Z,100178.97
2017-07-24T02:09:04.518Z,100175.30
2017-07-24T02:10:09.725Z,100168.77
2017-07-24T02:11:14.767Z,100175.73
2017-07-24T02:12:19.786Z,100174.10
2017-07-24T02:13:24.840Z,100169.23
2017-07-24T02:14:29.846Z,100174.78
2017-07-24T02:15:34.955Z,100170.09
2017-07-24T02:16:40.008Z,100161.34
2017-07-24T02:17:44.986Z,100157.64
2017-07-24T02:18:50.074Z,100154.31
2017-07-24T02:19:56.383Z,100154.94
2017-07-24T02:21:01.971Z,100153.63
2017-07-24T02:22:06.964Z,100154.05
2017-07-24T02:23:12.052Z,100154.81
2017-07-24T02:24:17.128Z,100156.64
2017-07-24T02:25:22.209Z,100152.61
2017-07-24T02:26:27.330Z,100151.22
2017-07-24T02:27:32.529Z,100151.80
2017-07-24T02:28:37.562Z,100155.27
2017-07-24T02:29:43.271Z,100150.19
2017-07-24T02:30:48.330Z,100150.83
2017-07-24T02:31:53.374Z,100148.87
2017-07-24T02:32:58.409Z,100146.06
2017-07-24T02:34:03.491Z,100145.89
2017-07-24T02:35:08.472Z,100145.64
2017-07-24T02:36:13.550Z,100145.95
2017-07-24T02:37:18.598Z,100141.81
2017-07-24T02:38:23.635Z,100139.02
2017-07-24T02:39:28.622Z,100141.64
2017-07-24T02:40:34.194Z,100133.77
2017-07-24T02:41:39.189Z,100136.63
2017-07-24T02:42:44.286Z,100138.49
2017-07-24T02:43:49.374Z,100141.63
2017-07-24T02:44:54.438Z,100138.47
2017-07-24T02:46:00.194Z,100137.75
2017-07-24T02:47:05.205Z,100137.37
2017-07-24T02:48:10.230Z,100133.66
2017-07-24T02:49:15.289Z,100133.46
2017-07-24T02:50:20.407Z,100132.48
2017-07-24T02:51:25.453Z,100131.52
2017-07-24T02:52:30.543Z,100133.59
2017-07-24T02:53:37.926Z,100133.73
2017-07-24T02:54:44.642Z,100134.38
2017-07-24T02:55:51.555Z,100128.97
2017-07-24T02:56:56.610Z,100133.25
2017-07-24T02:58:01.692Z,100132.39
2017-07-24T02:59:06.814Z,100124.99
2017-07-24T03:00:12.451Z,100124.87
2017-07-24T03:01:17.450Z,100123.39
2017-07-24T03:02:22.538Z,100123.45
2017-07-24T03:03:27.738Z,100121.91
2017-07-24T03:04:32.838Z,100125.55
2017-07-24T03:05:37.868Z,100126.53
2017-07-24T03:06:42.918Z,100131.95
2017-07-24T03:07:47.968Z,100126.06
2017-07-24T03:08:53.835Z,100123.16
2017-07-24T03:09:58.886Z,100123.08
2017-07-24T03:11:03.930Z,100115.78
2017-07-24T03:12:09.014Z,100126.81
2017-07-24T03:13:14.104Z,100122.61
2017-07-24T03:14:20.715Z,100120.34
2017-07-24T03:15:28.257Z,100116.34
2017-07-24T03:16:33.321Z,100114.67
2017-07-24T03:17:38.313Z,100112.94
2017-07-24T03:18:43.382Z,100109.05
2017-07-24T03:19:48.402Z,100109.86
2017-07-24T03:20:53.502Z,100106.70
2017-07-24T03:21:58.541Z,100105.81
2017-07-24T03:23:03.533Z,100108.20
2017-07-24T03:24:09.804Z,100107.50
2017-07-24T03:25:14.799Z,100101.73
2017-07-24T03:26:19.830Z,100099.73
2017-07-24T03:27:24.896Z,100099.70
2017-07-24T03:28:29.981Z,100100.33
2017-07-24T03:29:35.060Z,100099.70
2017-07-24T03:30:40.232Z,100102.38
2017-07-24T03:31:45.236Z,100101.36
2017-07-24T03:32:50.317Z,100102.85
2017-07-24T03:33:56.042Z,100095.80
2017-07-24T03:35:01.137Z,100094.44
2017-07-24T03:36:06.170Z,100094.27
2017-07-24T03:37:11.297Z,100090.73
2017-07-24T03:38:16.382Z,100091.58
2017-07-24T03:39:21.420Z,100089.20
2017-07-24T03:40:26.419Z,100085.03
2017-07-24T03:41:31.498Z,100083.06
2017-07-24T03:42:36.605Z,100083.94
2017-07-24T03:43:42.321Z,100082.89
2017-07-24T03:44:48.877Z,100077.09
2017-07-24T03:45:54.049Z,100077.34
2017-07-24T03:46:59.093Z,100074.53
2017-07-24T03:48:04.081Z,100072.18
2017-07-24T03:49:09.769Z,100074.05
2017-07-24T03:50:14.846Z,100075.33
2017-07-24T03:51:20.611Z,100068.26
2017-07-24T03:52:25.599Z,100074.83
2017-07-24T03:53:30.813Z,100079.88
2017-07-24T03:54:35.884Z,100078.13
2017-07-24T03:55:40.968Z,100079.48
2017-07-24T03:56:47.761Z,100074.66
2017-07-24T03:57:52.726Z,100075.05
2017-07-24T03:58:57.813Z,100075.61
2017-07-24T04:00:03.495Z,100078.16
2017-07-24T04:01:08.524Z,100076.89
2017-07-24T04:02:13.699Z,100081.11
2017-07-24T04:03:18.695Z,100080.91
2017-07-24T04:04:23.974Z,100074.41
2017-07-24T04:05:29.314Z,100073.52
2017-07-24T04:06:34.499Z,100065.55
2017-07-24T04:07:39.554Z,100073.91
2017-07-24T04:08:44.661Z,100081.54
2017-07-24T04:09:49.797Z,100074.72
2017-07-24T04:10:54.799Z,100071.30
2017-07-24T04:11:59.873Z,100071.25
2017-07-24T04:13:04.972Z,100067.40
2017-07-24T04:14:10.051Z,100067.28
2017-07-24T04:15:15.219Z,100064.69
2017-07-24T04:16:21.224Z,100070.54
2017-07-24T04:17:34.127Z,100058.09
2017-07-24T04:18:40.841Z,100058.69
2017-07-24T04:19:47.245Z,100060.64
2017-07-24T04:20:53.730Z,100062.02
2017-07-24T04:22:00.173Z,100062.23
2017-07-24T04:23:06.470Z,100058.86
2017-07-24T04:24:12.644Z,100054.72
2017-07-24T04:25:19.870Z,100062.77
2017-07-24T04:26:27.323Z,100056.03
2017-07-24T04:27:34.668Z,100055.05
2017-07-24T04:28:42.050Z,100052.24
2017-07-24T04:29:48.676Z,100049.17
2017-07-24T04:30:53.726Z,100049.01
2017-07-24T04:31:58.829Z,100038.45
2017-07-24T04:33:03.907Z,100039.78
2017-07-24T04:34:08.986Z,100042.22
2017-07-24T04:35:14.066Z,100044.88
2017-07-24T04:36:19.141Z,100032.84
2017-07-24T04:37:24.173Z,100035.04
2017-07-24T04:38:29.926Z,100026.72
2017-07-24T04:39:35.040Z,100032.37
2017-07-24T04:40:40.086Z,100031.30
2017-07-24T04:41:45.181Z,100033.41
2017-07-24T04:42:50.333Z,100030.45
2017-07-24T04:43:55.429Z,100027.94
2017-07-24T04:45:00.455Z,100028.03
2017-07-24T04:46:05.516Z,100027.69
2017-07-24T04:47:10.601Z,100023.29
2017-07-24T04:48:15.734Z,100023.63
2017-07-24T04:49:20.861Z,100022.25
2017-07-24T04:50:25.846Z,100022.61
2017-07-24T04:51:36.364Z,100023.91
2017-07-24T04:52:41.367Z,100028.34
2017-07-24T04:53:46.475Z,100025.89
2017-07-24T04:54:51.526Z,100028.67
2017-07-24T04:55:56.623Z,100026.59
2017-07-24T04:57:01.693Z,100028.52
2017-07-24T04:58:06.754Z,100021.39
2017-07-24T04:59:15.564Z,100025.55
2017-07-24T05:00:21.615Z,100023.89
2017-07-24T05:01:26.617Z,100015.00
2017-07-24T05:02:32.034Z,100017.14
2017-07-24T05:03:39.174Z,100018.27
2017-07-24T05:04:44.245Z,100016.14
2017-07-24T05:05:49.315Z,100022.42
2017-07-24T05:06:54.293Z,100017.33
2017-07-24T05:07:59.377Z,100012.41
2017-07-24T05:09:03.752Z,100012.36
2017-07-24T05:10:08.857Z,100016.20
2017-07-24T05:11:13.913Z,100010.16
2017-07-24T05:12:19.006Z,100010.75
2017-07-24T05:13:24.092Z,100010.36
2017-07-24T05:14:29.176Z,100013.41
2017-07-24T05:15:34.310Z,100011.16
2017-07-24T05:16:39.338Z,100008.09
2017-07-24T05:17:44.485Z,100005.05
2017-07-24T05:18:49.479Z,100009.50
2017-07-24T05:19:54.494Z,100008.80
2017-07-24T05:20:59.605Z,100013.82
2017-07-24T05:22:04.650Z,100008.52
2017-07-24T05:23:09.721Z,100003.73
2017-07-24T05:24:14.726Z,100001.22
2017-07-24T05:25:19.424Z,99999.47
2017-07-24T05:26:24.499Z,99992.80
2017-07-24T05:27:29.556Z,99995.45
2017-07-24T05:28:34.599Z,99997.19
2017-07-24T05:29:39.631Z,99991.88
2017-07-24T05:30:44.707Z,99992.53
2017-07-24T05:31:49.838Z,99994.80
2017-07-24T05:32:54.879Z,99995.41
2017-07-24T05:33:59.958Z,99988.61
2017-07-24T05:35:05.042Z,99989.41
2017-07-24T05:36:10.139Z,99983.06
2017-07-24T05:37:15.249Z,99985.48
2017-07-24T05:38:20.298Z,99985.76
2017-07-24T05:39:25.366Z,99983.72
2017-07-24T05:40:30.353Z,99986.88
2017-07-24T05:41:35.324Z,99980.35
2017-07-24T05:42:40.179Z,99983.91
2017-07-24T05:43:45.213Z,99982.50
2017-07-24T05:44:50.334Z,99979.21
2017-07-24T05:45:55.346Z,99974.36
2017-07-24T05:47:00.352Z,99977.91
2017-07-24T05:48:05.482Z,99974.97
2017-07-24T05:49:11.891Z,99981.41
2017-07-24T05:50:18.734Z,99978.66
2017-07-24T05:51:24.243Z,99974.55
2017-07-24T05:52:29.857Z,99974.57
2017-07-24T05:53:35.009Z,99974.36
2017-07-24T05:54:41.870Z,99975.22
2017-07-24T05:55:53.510Z,99974.86
2017-07-24T05:57:02.400Z,99970.52
2017-07-24T05:58:08.369Z,99966.77
2017-07-24T05:59:13.614Z,99964.46
2017-07-24T06:00:20.452Z,99964.33
2017-07-24T06:01:26.799Z,99958.75
2017-07-24T06:02:38.401Z,99960.25
2017-07-24T06:03:45.202Z,99955.86
2017-07-24T06:04:51.848Z,99954.95
2017-07-24T06:05:57.326Z,99960.12
2017-07-24T06:07:02.386Z,99952.78
2017-07-24T06:08:10.511Z,99952.81
2017-07-24T06:09:15.582Z,99983.93
2017-07-24T06:10:20.637Z,99949.03
2017-07-24T06:11:26.392Z,99953.50
2017-07-24T06:12:31.457Z,99951.23
2017-07-24T06:13:36.461Z,99950.02
2017-07-24T06:14:41.615Z,99948.94
2017-07-24T06:15:46.657Z,99951.20
2017-07-24T06:16:51.700Z,99951.72
2017-07-24T06:17:57.311Z,99950.70
2017-07-24T06:19:02.366Z,99955.60
2017-07-24T06:20:07.463Z,99952.77
2017-07-24T06:21:12.577Z,99953.70
2017-07-24T06:22:17.726Z,99946.03
2017-07-24T06:23:22.858Z,99945.56
2017-07-24T06:24:27.908Z,99940.53
2017-07-24T06:25:32.956Z,99945.99
2017-07-24T06:26:38.062Z,99937.02
2017-07-24T06:27:43.122Z,99941.03
2017-07-24T06:28:48.112Z,99936.84
2017-07-24T06:29:53.109Z,99933.49
2017-07-24T06:30:58.096Z,99936.23
2017-07-24T06:32:03.194Z,99930.11
2017-07-24T06:33:08.270Z,99929.47
2017-07-24T06:34:14.066Z,99930.76
2017-07-24T06:35:19.778Z,99938.48
2017-07-24T06:36:24.842Z,99934.43
2017-07-24T06:37:29.977Z,99934.73
2017-07-24T06:38:35.574Z,99936.41
2017-07-24T06:39:40.627Z,99929.81
2017-07-24T06:40:45.692Z,99932.02
2017-07-24T06:41:50.773Z,99929.00
2017-07-24T06:42:55.881Z,99928.23
2017-07-24T06:44:00.934Z,99927.15
2017-07-24T06:45:05.908Z,99929.00
2017-07-24T06:46:10.908Z,99926.77
2017-07-24T06:47:15.999Z,99921.02
2017-07-24T06:48:21.105Z,99917.23
2017-07-24T06:49:26.151Z,99918.66
2017-07-24T06:50:31.124Z,99921.94
2017-07-24T06:51:36.114Z,99919.08
2017-07-24T06:52:41.197Z,99916.56
2017-07-24T06:53:46.232Z,99911.14
2017-07-24T06:54:51.823Z,99909.98
2017-07-24T06:55:57.523Z,99911.75
2017-07-24T06:57:02.565Z,99911.55
2017-07-24T06:58:07.646Z,99912.59
2017-07-24T06:59:12.776Z,99911.05
2017-07-24T07:00:17.829Z,99913.34
2017-07-24T07:01:22.881Z,99919.77
2017-07-24T07:02:27.890Z,99918.08
2017-07-24T07:03:34.262Z,99918.88
2017-07-24T07:04:39.423Z,99912.50
2017-07-24T07:05:44.437Z,99914.89
2017-07-24T07:06:50.130Z,99916.65
2017-07-24T07:07:55.118Z,99909.88
2017-07-24T07:09:00.125Z,99919.87
2017-07-24T07:10:05.102Z,99919.08
2017-07-24T07:11:10.078Z,99921.11
2017-07-24T07:12:15.065Z,99921.28
2017-07-24T07:13:20.239Z,99922.94
2017-07-24T07:14:25.205Z,99917.66
2017-07-24T07:15:30.281Z,99921.28
2017-07-24T07:16:35.301Z,99914.41
2017-07-24T07:17:40.281Z,99920.09
2017-07-24T07:18:45.349Z,99911.79
2017-07-24T07:19:50.350Z,99909.00
2017-07-24T07:20:55.462Z,99912.66
2017-07-24T07:22:00.513Z,99910.06
2017-07-24T07:23:05.598Z,99912.55
2017-07-24T07:24:10.673Z,99903.52
2017-07-24T07:25:15.669Z,99899.19
2017-07-24T07:26:20.772Z,99898.68
2017-07-24T07:27:26.400Z,99898.09
2017-07-24T07:28:31.434Z,99897.92
2017-07-24T07:29:36.641Z,99895.09
2017-07-24T07:30:43.921Z,99888.86
2017-07-24T07:31:48.973Z,99893.83
2017-07-24T07:32:54.019Z,99887.45
2017-07-24T07:33:59.167Z,99886.47
2017-07-24T07:35:04.181Z,99891.88
2017-07-24T07:36:09.181Z,99891.52
2017-07-24T07:37:14.266Z,99891.09
2017-07-24T07:38:19.341Z,99895.23
2017-07-24T07:39:24.430Z,99894.67
2017-07-24T07:40:29.493Z,99898.57
2017-07-24T07:41:34.497Z,99898.06
2017-07-24T07:42:39.582Z,99895.16
2017-07-24T07:43:44.658Z,99893.77
2017-07-24T07:44:49.722Z,99891.37
2017-07-24T07:45:54.716Z,99887.84
2017-07-24T07:46:59.790Z,99891.92
2017-07-24T07:48:04.824Z,99885.29
2017-07-24T07:49:09.869Z,99885.33
2017-07-24T07:50:14.821Z,99883.52
2017-07-24T07:51:19.825Z,99886.80
2017-07-24T07:52:24.823Z,99877.58
2017-07-24T07:53:29.908Z,99881.86
2017-07-24T07:54:34.995Z,99876.56
2017-07-24T07:55:40.710Z,99877.16
2017-07-24T07:56:45.793Z,99871.19
2017-07-24T07:57:51.457Z,99871.81
2017-07-24T07:58:56.495Z,99874.56
2017-07-24T08:00:01.512Z,99881.59
2017-07-24T08:01:06.531Z,99873.47
2017-07-24T08:02:11.583Z,99872.07
2017-07-24T08:03:16.589Z,99874.28
2017-07-24T08:04:21.681Z,99866.86
2017-07-24T08:05:26.758Z,99865.41
2017-07-24T08:06:31.814Z,99873.14
2017-07-24T08:07:36.913Z,99858.94
2017-07-24T08:08:41.993Z,99859.72
2017-07-24T08:09:46.935Z,99860.92
2017-07-24T08:10:51.970Z,99862.56
2017-07-24T08:11:56.846Z,99862.43
2017-07-24T08:13:01.748Z,99854.79
2017-07-24T08:14:06.810Z,99862.55
2017-07-24T08:15:11.928Z,99856.22
2017-07-24T08:16:16.982Z,99856.03
2017-07-24T08:17:22.074Z,99847.78
2017-07-24T08:18:26.959Z,99849.56
2017-07-24T08:19:32.167Z,99853.77
2017-07-24T08:20:37.237Z,99852.33
2017-07-24T08:21:42.259Z,99850.32
2017-07-24T08:22:47.277Z,99846.77
2017-07-24T08:23:52.367Z,99851.63
2017-07-24T08:24:57.438Z,99851.81
2017-07-24T08:26:02.711Z,99848.59
2017-07-24T08:27:07.692Z,99843.63
2017-07-24T08:28:12.833Z,99850.84
2017-07-24T08:29:17.874Z,99847.45
2017-07-24T08:30:22.884Z,99852.11
2017-07-24T08:31:27.950Z,99858.86
2017-07-24T08:32:32.921Z,99850.41
2017-07-24T08:33:38.097Z,99849.20
2017-07-24T08:34:43.090Z,99853.14
2017-07-24T08:35:48.277Z,99849.63
2017-07-24T08:36:53.310Z,99852.84
2017-07-24T08:37:58.361Z,99848.55
2017-07-24T08:39:09.352Z,99845.87
2017-07-24T08:40:14.344Z,99845.03
2017-07-24T08:41:19.435Z,99841.92
2017-07-24T08:42:24.529Z,99840.04
2017-07-24T08:43:29.582Z,99844.41
2017-07-24T08:44:34.663Z,99841.55
2017-07-24T08:45:39.658Z,99841.53
2017-07-24T08:46:44.832Z,99844.27
2017-07-24T08:47:49.992Z,99845.42
2017-07-24T08:48:58.505Z,99839.36
2017-07-24T08:50:06.976Z,99837.38
2017-07-24T08:51:12.645Z,99841.72
2017-07-24T08:52:17.657Z,99842.44
2017-07-24T08:53:22.753Z,99839.33
2017-07-24T08:54:27.812Z,99838.95
2017-07-24T08:55:32.887Z,99838.41
2017-07-24T08:56:37.853Z,99831.08
2017-07-24T08:57:42.866Z,99837.03
2017-07-24T08:58:47.953Z,99833.91
2017-07-24T08:59:53.010Z,99828.70
2017-07-24T09:00:58.600Z,99826.77
2017-07-24T09:02:03.578Z,99825.04
2017-07-24T09:03:08.585Z,99823.89
2017-07-24T09:04:13.691Z,99822.27
2017-07-24T09:05:18.743Z,99827.23
2017-07-24T09:06:23.793Z,99822.02
2017-07-24T09:07:28.809Z,99820.91
2017-07-24T09:08:33.913Z,99816.59
2017-07-24T09:09:49.576Z,99820.98
2017-07-24T09:10:56.667Z,99821.72
2017-07-24T09:12:01.734Z,99817.64
2017-07-24T09:13:07.297Z,99810.64
2017-07-24T09:14:12.335Z,99818.41
2017-07-24T09:15:17.442Z,99812.34
2017-07-24T09:16:22.451Z,99808.45
2017-07-24T09:17:27.455Z,99807.56
2017-07-24T09:18:32.538Z,99797.04
2017-07-24T09:19:37.606Z,99804.78
2017-07-24T09:20:42.748Z,99795.91
2017-07-24T09:21:47.781Z,99800.44
2017-07-24T09:22:52.749Z,99800.36
2017-07-24T09:23:57.749Z,99798.54
2017-07-24T09:25:02.744Z,99799.96
2017-07-24T09:26:07.841Z,99799.38
2017-07-24T09:27:12.902Z,99799.16
2017-07-24T09:28:17.993Z,99794.17
2017-07-24T09:29:22.997Z,99796.17
2017-07-24T09:30:29.453Z,99787.80
2017-07-24T09:31:34.456Z,99790.22
2017-07-24T09:32:39.442Z,99786.34
2017-07-24T09:33:44.414Z,99788.77
2017-07-24T09:34:49.406Z,99786.04
2017-07-24T09:35:54.426Z,99783.48
2017-07-24T09:36:59.505Z,99783.38
2017-07-24T09:38:04.546Z,99779.58
2017-07-24T09:39:09.362Z,99777.29
2017-07-24T09:40:14.515Z,99771.66
2017-07-24T09:41:20.171Z,99772.09
2017-07-24T09:42:25.248Z,99777.78
2017-07-24T09:43:30.273Z,99767.72
2017-07-24T09:44:35.269Z,99766.70
2017-07-24T09:45:40.261Z,99762.70
2017-07-24T09:46:45.355Z,99762.15
2017-07-24T09:47:50.453Z,99769.27
2017-07-24T09:48:55.488Z,99771.98
2017-07-24T09:50:00.605Z,99767.94
2017-07-24T09:51:05.911Z,99762.06
2017-07-24T09:52:11.143Z,99761.95
2017-07-24T09:53:16.166Z,99764.48
2017-07-24T09:54:21.220Z,99759.39
2017-07-24T09:55:26.233Z,99756.50
2017-07-24T09:56:31.271Z,99754.98
2017-07-24T09:57:36.319Z,99758.33
2017-07-24T09:58:41.393Z,99753.40
2017-07-24T09:59:46.469Z,99758.57
2017-07-24T10:00:51.546Z,99758.33
2017-07-24T10:01:56.585Z,99755.73
2017-07-24T10:03:01.570Z,99746.83
2017-07-24T10:04:07.229Z,99742.84
2017-07-24T10:05:12.295Z,99740.88
2017-07-24T10:06:17.356Z,99740.20
2017-07-24T10:07:25.001Z,99740.91
2017-07-24T10:08:29.994Z,99748.20
2017-07-24T10:09:35.104Z,99740.13
2017-07-24T10:10:40.130Z,99745.36
2017-07-24T10:11:45.844Z,99744.06
2017-07-24T10:12:51.137Z,99745.73
2017-07-24T10:13:56.716Z,99742.28
2017-07-24T10:15:01.757Z,99732.84
2017-07-24T10:16:06.764Z,99737.94
2017-07-24T10:17:11.791Z,99729.46
2017-07-24T10:18:16.874Z,99729.34
2017-07-24T10:19:21.942Z,99732.33
2017-07-24T10:20:26.938Z,99732.53
2017-07-24T10:21:31.946Z,99725.97
2017-07-24T10:22:37.001Z,99721.53
2017-07-24T10:23:41.988Z,99726.88
2017-07-24T10:24:47.141Z,99716.52
2017-07-24T10:25:52.191Z,99714.58
2017-07-24T10:26:57.315Z,99715.38
2017-07-24T10:28:02.314Z,99708.51
2017-07-24T10:29:07.302Z,99717.98
2017-07-24T10:30:12.387Z,99715.07
2017-07-24T10:31:17.513Z,99713.17
2017-07-24T10:32:22.544Z,99710.56
2017-07-24T10:33:27.531Z,99709.59
2017-07-24T10:34:32.630Z,99706.42
2017-07-24T10:35:37.708Z,99700.61
2017-07-24T10:36:42.806Z,99695.44
2017-07-24T10:37:47.949Z,99696.11
2017-07-24T10:38:53.032Z,99687.06
2017-07-24T10:39:58.062Z,99683.89
2017-07-24T10:41:03.115Z,99681.70
2017-07-24T10:42:08.249Z,99676.46
2017-07-24T10:43:13.291Z,99669.58
2017-07-24T10:44:18.358Z,99668.45
2017-07-24T10:45:23.500Z,99676.16
2017-07-24T10:46:28.547Z,99672.53
2017-07-24T10:47:33.693Z,99676.32
2017-07-24T10:48:38.719Z,99670.53
2017-07-24T10:49:43.883Z,99668.39
2017-07-24T10:50:48.864Z,99673.34
2017-07-24T10:51:53.875Z,99677.52
2017-07-24T10:52:58.979Z,99668.58
2017-07-24T10:54:04.644Z,99675.53
2017-07-24T10:55:09.620Z,99672.12
2017-07-24T10:56:14.801Z,99671.59
2017-07-24T10:57:19.789Z,99667.27
2017-07-24T10:58:24.817Z,99664.88
2017-07-24T10:59:29.847Z,99659.94
2017-07-24T11:00:34.858Z,99656.05
2017-07-24T11:01:39.917Z,99650.50
2017-07-24T11:02:44.903Z,99650.83
2017-07-24T11:03:49.914Z,99643.09
2017-07-24T11:04:55.557Z,99645.23
2017-07-24T11:06:00.565Z,99636.28
2017-07-24T11:07:05.641Z,99642.56
2017-07-24T11:08:10.624Z,99643.38
2017-07-24T11:09:15.658Z,99643.06
2017-07-24T11:10:20.702Z,99640.73
2017-07-24T11:11:25.782Z,99638.08
2017-07-24T11:12:30.943Z,99637.73
2017-07-24T11:13:35.950Z,99634.24
2017-07-24T11:14:40.967Z,99626.31
2017-07-24T11:15:45.996Z,99628.33
2017-07-24T11:16:51.011Z,99633.78
2017-07-24T11:17:56.092Z,99631.38
2017-07-24T11:19:01.072Z,99633.22
2017-07-24T11:20:06.189Z,99622.97
2017-07-24T11:21:11.242Z,99628.51
2017-07-24T11:22:17.822Z,99631.30
2017-07-24T11:23:22.834Z,99624.27
2017-07-24T11:24:27.730Z,99626.54
2017-07-24T11:25:32.830Z,99624.75
2017-07-24T11:26:37.879Z,99621.52
2017-07-24T11:27:42.947Z,99623.52
2017-07-24T11:28:47.958Z,99617.14
2017-07-24T11:29:53.034Z,99618.50
2017-07-24T11:30:58.305Z,99613.47
2017-07-24T11:32:03.285Z,99617.41
2017-07-24T11:33:08.302Z,99614.60
2017-07-24T11:34:13.330Z,99611.81
2017-07-24T11:35:25.824Z,99614.97
2017-07-24T11:36:30.828Z,99607.16
2017-07-24T11:37:35.872Z,99606.06
2017-07-24T11:38:40.951Z,99601.25
2017-07-24T11:39:45.942Z,99595.95
2017-07-24T11:40:51.124Z,99603.24
2017-07-24T11:41:56.137Z,99598.32
2017-07-24T11:43:01.190Z,99599.15
2017-07-24T11:44:06.174Z,99596.88
2017-07-24T11:45:11.165Z,99594.30
2017-07-24T11:46:16.153Z,99579.67
2017-07-24T11:47:21.271Z,99581.00
2017-07-24T11:48:26.292Z,99573.23
2017-07-24T11:49:31.274Z,99574.31
2017-07-24T11:50:36.271Z,99565.95
2017-07-24T11:51:41.263Z,99569.45
2017-07-24T11:52:46.389Z,99571.47
2017-07-24T11:53:51.523Z,99572.48
2017-07-24T11:54:56.598Z,99569.47
2017-07-24T11:56:09.049Z,99567.14
2017-07-24T11:57:15.326Z,99572.32
2017-07-24T11:58:20.446Z,99569.72
2017-07-24T11:59:25.537Z,99558.04
2017-07-24T12:00:30.203Z,99556.70
2017-07-24T12:01:35.288Z,99558.77
2017-07-24T12:02:40.289Z,99555.41
2017-07-24T12:03:45.527Z,99555.59
2017-07-24T12:04:50.550Z,99558.75
2017-07-24T12:05:56.096Z,99554.73
2017-07-24T12:07:01.127Z,99555.23
2017-07-24T12:08:06.186Z,99555.83
2017-07-24T12:09:11.213Z,99557.13
2017-07-24T12:10:17.275Z,99558.23
2017-07-24T12:11:22.303Z,99552.80
2017-07-24T12:12:27.364Z,99551.89
2017-07-24T12:13:32.317Z,99553.46
2017-07-24T12:14:37.370Z,99553.41
2017-07-24T12:15:42.417Z,99548.39
2017-07-24T12:16:49.646Z,99552.55
2017-07-24T12:17:56.665Z,99552.57
2017-07-24T12:19:01.671Z,99552.06
2017-07-24T12:20:12.907Z,99556.81
2017-07-24T12:21:17.954Z,99551.87
2017-07-24T12:22:22.960Z,99557.48
2017-07-24T12:23:28.768Z,99550.81
2017-07-24T12:24:33.814Z,99555.39
2017-07-24T12:25:38.931Z,99561.34
2017-07-24T12:26:44.002Z,99561.08
2017-07-24T12:27:49.003Z,99568.77
2017-07-24T12:28:54.074Z,99564.81
2017-07-24T12:29:59.123Z,99564.66
2017-07-24T12:31:04.174Z,99564.99
2017-07-24T12:32:09.202Z,99564.81
2017-07-24T12:33:14.202Z,99564.89
2017-07-24T12:34:19.182Z,99563.73
2017-07-24T12:35:24.265Z,99567.03
2017-07-24T12:36:29.261Z,99567.69
2017-07-24T12:37:47.074Z,99569.11